Time,TemperatureF,DewpointF,PressureIn,WindDirection,WindDirectionDegrees,WindSpeedMPH,WindSpeedGustMPH,Humidity,HourlyPrecipIn,Conditions,Clouds,dailyrainin,SoftwareType,DateUTC
2013-01-11 00:02:00,40.0,26.0,-100.00,ESE,102,0.0,1.0,56,-99.99,,,-99.99,,2013-01-11 08:02:00,
2013-01-11 00:12:00,38.0,25.0,-100.00,NNE,16,1.0,2.0,60,-99.99,,,-99.99,,2013-01-11 08:12:00,
2013-01-11 00:32:00,38.0,26.0,-100.00,NNE,22,1.0,2.0,62,-99.99,,,-99.99,,2013-01-11 08:32:00,
2013-01-11 00:42:00,37.0,26.0,-100.00,NNE,29,2.0,4.0,64,-99.99,,,-99.99,,2013-01-11 08:42:00,
2013-01-11 00:52:00,36.0,26.0,-100.00,North,5,2.0,5.0,68,-99.99,,,-99.99,,2013-01-11 08:52:00,
2013-01-11 01:02:00,35.0,26.0,-100.00,North,359,2.0,4.0,69,-99.99,,,-99.99,,2013-01-11 09:02:00,
2013-01-11 01:12:00,35.0,27.0,-100.00,NNE,18,3.0,5.0,71,-99.99,,,-99.99,,2013-01-11 09:12:00,
2013-01-11 01:32:00,35.0,27.0,-100.00,North,359,1.0,4.0,73,-99.99,,,-99.99,,2013-01-11 09:32:00,
2013-01-11 01:42:00,35.0,27.0,-100.00,North,0,1.0,4.0,73,-99.99,,,-99.99,,2013-01-11 09:42:00,
2013-01-11 01:52:00,37.0,27.0,-100.00,NE,39,2.0,4.0,68,-99.99,,,-99.99,,2013-01-11 09:52:00,
2013-01-11 02:02:00,36.0,27.0,-100.00,North,351,1.0,2.0,69,-99.99,,,-99.99,,2013-01-11 10:02:00,
2013-01-11 02:12:00,34.0,26.0,-100.00,WNW,289,1.0,2.0,72,-99.99,,,-99.99,,2013-01-11 10:12:00,
2013-01-11 02:22:00,33.0,26.0,-100.00,ESE,123,0.0,1.0,75,-99.99,,,-99.99,,2013-01-11 10:22:00,
2013-01-11 02:32:00,32.0,26.0,-100.00,NW,307,1.0,2.0,79,-99.99,,,-99.99,,2013-01-11 10:32:00,
2013-01-11 02:42:00,34.0,27.0,-100.00,NE,38,2.0,4.0,76,-99.99,,,-99.99,,2013-01-11 10:42:00,
2013-01-11 02:52:00,34.0,27.0,-100.00,NNW,348,1.0,4.0,75,-99.99,,,-99.99,,2013-01-11 10:52:00,
2013-01-11 03:02:00,33.0,27.0,-100.00,North,359,2.0,5.0,78,-99.99,,,-99.99,,2013-01-11 11:02:00,
2013-01-11 03:12:00,34.0,28.0,-100.00,North,357,2.0,4.0,77,-99.99,,,-99.99,,2013-01-11 11:12:00,
2013-01-11 03:22:00,33.0,27.0,-100.00,North,7,2.0,4.0,78,-99.99,,,-99.99,,2013-01-11 11:22:00,
2013-01-11 03:32:00,33.0,27.0,-100.00,North,8,1.0,4.0,79,-99.99,,,-99.99,,2013-01-11 11:32:00,
2013-01-11 03:42:00,33.0,27.0,-100.00,North,5,1.0,3.0,78,-99.99,,,-99.99,,2013-01-11 11:42:00,
2013-01-11 03:52:00,33.0,27.0,-100.00,NNW,337,2.0,4.0,78,-99.99,,,-99.99,,2013-01-11 11:52:00,
2013-01-11 04:02:00,34.0,27.0,-100.00,WNW,287,1.0,3.0,75,-99.99,,,-99.99,,2013-01-11 12:02:00,
2013-01-11 04:12:00,33.0,27.0,-100.00,North,349,1.0,2.0,77,-99.99,,,-99.99,,2013-01-11 12:12:00,
2013-01-11 04:22:00,32.0,26.0,-100.00,NNE,27,1.0,1.0,77,-99.99,,,-99.99,,2013-01-11 12:22:00,
2013-01-11 04:32:00,32.0,26.0,-100.00,NE,42,1.0,3.0,79,-99.99,,,-99.99,,2013-01-11 12:32:00,
2013-01-11 04:42:00,33.0,27.0,-100.00,NNW,344,1.0,2.0,78,-99.99,,,-99.99,,2013-01-11 12:42:00,
2013-01-11 04:52:00,33.0,26.0,-100.00,NNW,332,1.0,3.0,76,-99.99,,,-99.99,,2013-01-11 12:52:00,
2013-01-11 05:02:00,33.0,26.0,-100.00,NNW,332,1.0,3.0,76,-99.99,,,-99.99,,2013-01-11 13:02:00,
2013-01-11 05:12:00,33.0,26.0,-100.00,NNW,348,1.0,3.0,76,-99.99,,,-99.99,,2013-01-11 13:12:00,
2013-01-11 05:22:00,33.0,26.0,-100.00,NNW,344,1.0,5.0,76,-99.99,,,-99.99,,2013-01-11 13:22:00,
2013-01-11 05:32:00,33.0,26.0,-100.00,NNW,338,2.0,7.0,75,-99.99,,,-99.99,,2013-01-11 13:32:00,
2013-01-11 05:42:00,34.0,26.0,-100.00,NW,317,2.0,6.0,73,-99.99,,,-99.99,,2013-01-11 13:42:00,
2013-01-11 05:52:00,33.0,25.0,-100.00,NW,324,2.0,4.0,72,-99.99,,,-99.99,,2013-01-11 13:52:00,
2013-01-11 06:02:00,33.0,25.0,-100.00,NW,308,1.0,4.0,73,-99.99,,,-99.99,,2013-01-11 14:02:00,
2013-01-11 06:12:00,32.0,25.0,-100.00,East,84,0.0,1.0,75,-99.99,,,-99.99,,2013-01-11 14:12:00,
2013-01-11 06:22:00,32.0,25.0,-100.00,NE,46,1.0,2.0,76,-99.99,,,-99.99,,2013-01-11 14:22:00,
2013-01-11 06:33:00,32.0,25.0,-100.00,NE,46,0.0,1.0,74,-99.99,,,-99.99,,2013-01-11 14:33:00,
2013-01-11 06:42:00,31.0,25.0,-100.00,ENE,71,1.0,2.0,78,-99.99,,,-99.99,,2013-01-11 14:42:00,
2013-01-11 06:53:00,32.0,26.0,-100.00,NE,37,1.0,2.0,78,-99.99,,,-99.99,,2013-01-11 14:53:00,
2013-01-11 07:03:00,32.0,25.0,-100.00,NE,49,1.0,2.0,74,-99.99,,,-99.99,,2013-01-11 15:03:00,
2013-01-11 07:12:00,31.0,25.0,-100.00,NE,50,1.0,2.0,77,-99.99,,,-99.99,,2013-01-11 15:12:00,
2013-01-11 07:22:00,31.0,25.0,-100.00,North,8,1.0,2.0,77,-99.99,,,-99.99,,2013-01-11 15:22:00,
2013-01-11 07:32:00,31.0,25.0,-100.00,NNE,26,1.0,2.0,77,-99.99,,,-99.99,,2013-01-11 15:32:00,
2013-01-11 07:42:00,31.0,24.0,-100.00,North,10,1.0,2.0,76,-99.99,,,-99.99,,2013-01-11 15:42:00,
2013-01-11 07:52:00,32.0,25.0,-100.00,NNE,13,1.0,2.0,75,-99.99,,,-99.99,,2013-01-11 15:52:00,
2013-01-11 08:02:00,32.0,25.0,-100.00,NNE,13,1.0,2.0,75,-99.99,,,-99.99,,2013-01-11 16:02:00,
2013-01-11 08:12:00,34.0,26.0,-100.00,NE,50,0.0,1.0,71,-99.99,,,-99.99,,2013-01-11 16:12:00,
2013-01-11 08:22:00,35.0,26.0,-100.00,ENE,63,0.0,1.0,69,-99.99,,,-99.99,,2013-01-11 16:22:00,
2013-01-11 08:32:00,36.0,25.0,-100.00,ENE,67,0.0,1.0,65,-99.99,,,-99.99,,2013-01-11 16:32:00,
2013-01-11 08:42:00,37.0,25.0,-100.00,NE,46,1.0,3.0,62,-99.99,,,-99.99,,2013-01-11 16:42:00,
2013-01-11 08:52:00,38.0,25.0,-100.00,NNW,345,1.0,3.0,59,-99.99,,,-99.99,,2013-01-11 16:52:00,
2013-01-11 09:02:00,39.0,25.0,-100.00,NNW,338,1.0,3.0,57,-99.99,,,-99.99,,2013-01-11 17:02:00,
2013-01-11 09:12:00,41.0,26.0,-100.00,NNW,331,0.0,2.0,54,-99.99,,,-99.99,,2013-01-11 17:12:00,
2013-01-11 09:22:00,42.0,25.0,-100.00,NE,51,1.0,2.0,51,-99.99,,,-99.99,,2013-01-11 17:22:00,
2013-01-11 09:33:00,43.0,26.0,-100.00,SW,234,1.0,2.0,50,-99.99,,,-99.99,,2013-01-11 17:33:00,
2013-01-11 09:42:00,44.0,26.0,-100.00,South,180,1.0,4.0,49,-99.99,,,-99.99,,2013-01-11 17:42:00,
2013-01-11 09:53:00,46.0,27.0,-100.00,SSE,152,1.0,4.0,47,-99.99,,,-99.99,,2013-01-11 17:53:00,
2013-01-11 10:02:00,48.0,24.0,-100.00,SSE,166,1.0,3.0,38,-99.99,,,-99.99,,2013-01-11 18:02:00,
2013-01-11 10:12:00,48.0,23.0,-100.00,East,101,2.0,6.0,37,-99.99,,,-99.99,,2013-01-11 18:12:00,
2013-01-11 10:23:00,49.0,23.0,-100.00,SE,138,1.0,4.0,36,-99.99,,,-99.99,,2013-01-11 18:23:00,
2013-01-11 10:32:00,49.0,23.0,-100.00,SSW,197,2.0,7.0,35,-99.99,,,-99.99,,2013-01-11 18:32:00,
2013-01-11 10:42:00,49.0,22.0,-100.00,SW,236,4.0,7.0,34,-99.99,,,-99.99,,2013-01-11 18:42:00,
2013-01-11 10:53:00,50.0,22.0,-100.00,WSW,246,3.0,7.0,33,-99.99,,,-99.99,,2013-01-11 18:53:00,
2013-01-11 11:02:00,51.0,21.0,-100.00,West,269,2.0,8.0,31,-99.99,,,-99.99,,2013-01-11 19:02:00,
2013-01-11 11:12:00,51.0,21.0,-100.00,WSW,247,3.0,7.0,31,-99.99,,,-99.99,,2013-01-11 19:12:00,
2013-01-11 11:22:00,51.0,19.0,-100.00,West,267,3.0,9.0,28,-99.99,,,-99.99,,2013-01-11 19:22:00,
2013-01-11 11:32:00,51.0,19.0,-100.00,West,265,5.0,11.0,28,-99.99,,,-99.99,,2013-01-11 19:32:00,
2013-01-11 11:42:00,52.0,20.0,-100.00,WSW,250,3.0,8.0,28,-99.99,,,-99.99,,2013-01-11 19:42:00,
2013-01-11 11:52:00,52.0,20.0,-100.00,West,277,4.0,13.0,28,-99.99,,,-99.99,,2013-01-11 19:52:00,
2013-01-11 12:02:00,54.0,21.0,-100.00,SW,232,2.0,11.0,27,-99.99,,,-99.99,,2013-01-11 20:02:00,
2013-01-11 12:12:00,52.0,19.0,-100.00,West,265,6.0,13.0,27,-99.99,,,-99.99,,2013-01-11 20:12:00,
2013-01-11 12:22:00,52.0,19.0,-100.00,West,272,5.0,10.0,27,-99.99,,,-99.99,,2013-01-11 20:22:00,
2013-01-11 12:32:00,52.0,20.0,-100.00,West,279,3.0,10.0,28,-99.99,,,-99.99,,2013-01-11 20:32:00,
2013-01-11 12:43:00,53.0,21.0,-100.00,West,260,2.0,8.0,28,-99.99,,,-99.99,,2013-01-11 20:43:00,
2013-01-11 12:52:00,53.0,19.0,-100.00,SW,234,4.0,12.0,26,-99.99,,,-99.99,,2013-01-11 20:52:00,
2013-01-11 13:02:00,53.0,20.0,-100.00,WSW,248,3.0,12.0,27,-99.99,,,-99.99,,2013-01-11 21:02:00,
2013-01-11 13:12:00,53.0,19.0,-100.00,West,272,3.0,8.0,26,-99.99,,,-99.99,,2013-01-11 21:12:00,
2013-01-11 13:22:00,55.0,20.0,-100.00,WNW,282,2.0,6.0,25,-99.99,,,-99.99,,2013-01-11 21:22:00,
2013-01-11 13:32:00,54.0,18.0,-100.00,West,262,4.0,9.0,24,-99.99,,,-99.99,,2013-01-11 21:32:00,
2013-01-11 13:42:00,54.0,17.0,-100.00,West,273,5.0,13.0,23,-99.99,,,-99.99,,2013-01-11 21:42:00,
2013-01-11 13:52:00,53.0,16.0,-100.00,West,269,5.0,10.0,23,-99.99,,,-99.99,,2013-01-11 21:52:00,
2013-01-11 14:02:00,53.0,16.0,-100.00,WSW,245,6.0,15.0,23,-99.99,,,-99.99,,2013-01-11 22:02:00,
2013-01-11 14:12:00,54.0,17.0,-100.00,WSW,244,5.0,12.0,23,-99.99,,,-99.99,,2013-01-11 22:12:00,
2013-01-11 14:22:00,54.0,17.0,-100.00,WSW,258,3.0,9.0,23,-99.99,,,-99.99,,2013-01-11 22:22:00,
2013-01-11 14:32:00,53.0,19.0,-100.00,WSW,257,4.0,10.0,26,-99.99,,,-99.99,,2013-01-11 22:32:00,
2013-01-11 14:42:00,53.0,22.0,-100.00,WSW,245,6.0,15.0,30,-99.99,,,-99.99,,2013-01-11 22:42:00,
2013-01-11 14:52:00,53.0,22.0,-100.00,SW,230,6.0,12.0,29,-99.99,,,-99.99,,2013-01-11 22:52:00,
2013-01-11 15:02:00,53.0,22.0,-100.00,WSW,242,5.0,12.0,30,-99.99,,,-99.99,,2013-01-11 23:02:00,
2013-01-11 15:12:00,53.0,22.0,-100.00,WSW,242,6.0,11.0,30,-99.99,,,-99.99,,2013-01-11 23:12:00,
2013-01-11 15:22:00,53.0,23.0,-100.00,WSW,255,7.0,12.0,31,-99.99,,,-99.99,,2013-01-11 23:22:00,
2013-01-11 15:32:00,53.0,22.0,-100.00,WSW,238,6.0,13.0,30,-99.99,,,-99.99,,2013-01-11 23:32:00,
2013-01-11 15:42:00,53.0,22.0,-100.00,WSW,238,5.0,12.0,30,-99.99,,,-99.99,,2013-01-11 23:42:00,
2013-01-11 15:53:00,53.0,24.0,-100.00,West,259,7.0,12.0,32,-99.99,,,-99.99,,2013-01-11 23:53:00,
2013-01-11 16:02:00,53.0,24.0,-100.00,WSW,238,6.0,13.0,32,-99.99,,,-99.99,,2013-01-12 00:02:00,
2013-01-11 16:12:00,52.0,24.0,-100.00,SW,230,6.0,14.0,33,-99.99,,,-99.99,,2013-01-12 00:12:00,
2013-01-11 16:22:00,52.0,24.0,-100.00,SW,235,5.0,11.0,33,-99.99,,,-99.99,,2013-01-12 00:22:00,
2013-01-11 16:32:00,51.0,23.0,-100.00,WSW,237,5.0,9.0,33,-99.99,,,-99.99,,2013-01-12 00:32:00,
2013-01-11 16:42:00,51.0,24.0,-100.00,WSW,245,4.0,10.0,34,-99.99,,,-99.99,,2013-01-12 00:42:00,
2013-01-11 16:52:00,50.0,25.0,-100.00,SW,234,4.0,8.0,37,-99.99,,,-99.99,,2013-01-12 00:52:00,
2013-01-11 17:02:00,50.0,25.0,-100.00,SW,234,4.0,8.0,37,-99.99,,,-99.99,,2013-01-12 01:02:00,
2013-01-11 17:12:00,50.0,25.0,-100.00,WSW,237,4.0,8.0,38,-99.99,,,-99.99,,2013-01-12 01:12:00,
2013-01-11 17:22:00,49.0,26.0,-100.00,SW,218,2.0,7.0,41,-99.99,,,-99.99,,2013-01-12 01:22:00,
2013-01-11 17:32:00,47.0,26.0,-100.00,East,101,1.0,2.0,44,-99.99,,,-99.99,,2013-01-12 01:32:00,
2013-01-11 17:42:00,47.0,26.0,-100.00,East,101,1.0,2.0,44,-99.99,,,-99.99,,2013-01-12 01:42:00,
2013-01-11 17:52:00,46.0,27.0,-100.00,East,92,1.0,3.0,48,-99.99,,,-99.99,,2013-01-12 01:52:00,
2013-01-11 18:02:00,45.0,27.0,-100.00,North,350,1.0,2.0,50,-99.99,,,-99.99,,2013-01-12 02:02:00,
2013-01-11 18:12:00,45.0,28.0,-100.00,NE,34,1.0,3.0,51,-99.99,,,-99.99,,2013-01-12 02:12:00,
2013-01-11 18:22:00,43.0,28.0,-100.00,NE,37,1.0,2.0,54,-99.99,,,-99.99,,2013-01-12 02:22:00,
2013-01-11 18:32:00,42.0,28.0,-100.00,North,6,1.0,2.0,57,-99.99,,,-99.99,,2013-01-12 02:32:00,
2013-01-11 18:42:00,41.0,28.0,-100.00,North,5,1.0,3.0,60,-99.99,,,-99.99,,2013-01-12 02:42:00,
2013-01-11 18:52:00,40.0,28.0,-100.00,NNE,12,1.0,3.0,62,-99.99,,,-99.99,,2013-01-12 02:52:00,
2013-01-11 19:02:00,40.0,28.0,-100.00,NNW,338,1.0,3.0,62,-99.99,,,-99.99,,2013-01-12 03:02:00,
2013-01-11 19:11:00,40.0,28.0,-100.00,NNE,22,1.0,4.0,62,-99.99,,,-99.99,,2013-01-12 03:11:00,
2013-01-11 19:22:00,39.0,27.0,-100.00,NNE,14,1.0,3.0,63,-99.99,,,-99.99,,2013-01-12 03:22:00,
2013-01-11 19:32:00,38.0,28.0,-100.00,North,3,1.0,4.0,66,-99.99,,,-99.99,,2013-01-12 03:32:00,
2013-01-11 19:42:00,38.0,28.0,-100.00,North,3,1.0,4.0,66,-99.99,,,-99.99,,2013-01-12 03:42:00,
2013-01-11 19:52:00,37.0,27.0,-100.00,NW,318,1.0,4.0,68,-99.99,,,-99.99,,2013-01-12 03:52:00,
2013-01-11 20:02:00,37.0,27.0,-100.00,NW,318,1.0,4.0,68,-99.99,,,-99.99,,2013-01-12 04:02:00,
2013-01-11 20:12:00,38.0,28.0,-100.00,North,351,2.0,4.0,67,-99.99,,,-99.99,,2013-01-12 04:12:00,
2013-01-11 20:22:00,37.0,28.0,-100.00,North,353,1.0,3.0,69,-99.99,,,-99.99,,2013-01-12 04:22:00,
2013-01-11 20:32:00,37.0,28.0,-100.00,North,357,1.0,4.0,70,-99.99,,,-99.99,,2013-01-12 04:32:00,
2013-01-11 20:42:00,37.0,28.0,-100.00,North,357,1.0,4.0,70,-99.99,,,-99.99,,2013-01-12 04:42:00,
2013-01-11 20:52:00,37.0,28.0,-100.00,NNE,12,1.0,2.0,69,-99.99,,,-99.99,,2013-01-12 04:52:00,
2013-01-11 21:03:00,36.0,28.0,-100.00,North,8,1.0,4.0,72,-99.99,,,-99.99,,2013-01-12 05:03:00,
2013-01-11 21:12:00,36.0,28.0,-100.00,NNE,15,1.0,2.0,72,-99.99,,,-99.99,,2013-01-12 05:12:00,
2013-01-11 21:22:00,36.0,28.0,-100.00,North,352,1.0,3.0,72,-99.99,,,-99.99,,2013-01-12 05:22:00,
2013-01-11 21:32:00,36.0,28.0,-100.00,NNE,15,1.0,1.0,73,-99.99,,,-99.99,,2013-01-12 05:32:00,
2013-01-11 21:42:00,36.0,28.0,-100.00,NNW,348,1.0,2.0,73,-99.99,,,-99.99,,2013-01-12 05:42:00,
2013-01-11 21:52:00,35.0,28.0,-100.00,North,1,1.0,2.0,74,-99.99,,,-99.99,,2013-01-12 05:52:00,
2013-01-11 22:02:00,35.0,28.0,-100.00,North,349,1.0,2.0,74,-99.99,,,-99.99,,2013-01-12 06:02:00,
2013-01-11 22:12:00,35.0,28.0,-100.00,North,1,1.0,2.0,74,-99.99,,,-99.99,,2013-01-12 06:12:00,
2013-01-11 22:22:00,35.0,28.0,-100.00,NNE,18,1.0,3.0,74,-99.99,,,-99.99,,2013-01-12 06:22:00,
2013-01-11 22:32:00,35.0,28.0,-100.00,NE,38,1.0,3.0,74,-99.99,,,-99.99,,2013-01-12 06:32:00,
2013-01-11 22:42:00,35.0,28.0,-100.00,NE,38,1.0,3.0,74,-99.99,,,-99.99,,2013-01-12 06:42:00,
2013-01-11 22:52:00,35.0,28.0,-100.00,North,2,2.0,5.0,74,-99.99,,,-99.99,,2013-01-12 06:52:00,
2013-01-11 23:02:00,35.0,28.0,-100.00,North,357,1.0,4.0,74,-99.99,,,-99.99,,2013-01-12 07:02:00,
2013-01-11 23:11:00,35.0,28.0,-100.00,North,2,1.0,4.0,74,-99.99,,,-99.99,,2013-01-12 07:11:00,
2013-01-11 23:22:00,35.0,28.0,-100.00,ENE,61,1.0,2.0,74,-99.99,,,-99.99,,2013-01-12 07:22:00,
2013-01-11 23:32:00,35.0,27.0,-100.00,NNE,17,1.0,2.0,72,-99.99,,,-99.99,,2013-01-12 07:32:00,
2013-01-11 23:42:00,35.0,27.0,-100.00,NNE,17,1.0,2.0,72,-99.99,,,-99.99,,2013-01-12 07:42:00,
2013-01-11 23:52:00,32.0,25.0,-100.00,West,260,0.0,2.0,76,-99.99,,,-99.99,,2013-01-12 07:52:00,